Time;durP1;ratioP1;P1;durP2;ratioP2;P2;SDS_P1;SDS_P2;PMS_P1;PMS_P2;Temp;Humidity;BMP_temperature;BMP_pressure;BME280_temperature;BME280_humidity;BME280_pressure;Samples;Min_cycle;Max_cycle;Signal;HPM_P1;HPM_P2
2023/04/20 00:02:05;;;;;;;8.70;6.50;;;11.70;61.30;;;;;;5012518;28;20198;-91
2023/04/20 00:04:31;;;;;;;8.43;6.60;;;11.70;62.20;;;;;;5010577;28;20418;-87
2023/04/20 00:06:57;;;;;;;7.43;6.73;;;11.70;63.60;;;;;;5011776;28;20397;-91
2023/04/20 00:09:23;;;;;;;6.53;5.93;;;11.70;64.30;;;;;;5010602;28;20428;-90
2023/04/20 00:11:49;;;;;;;7.03;6.33;;;11.70;63.20;;;;;;5011498;28;20425;-91
2023/04/20 00:14:15;;;;;;;6.40;5.90;;;11.70;63.50;;;;;;5012306;28;20416;-91
2023/04/20 00:16:41;;;;;;;7.23;6.53;;;11.70;64.10;;;;;;5011428;28;20482;-90
2023/04/20 00:19:07;;;;;;;9.70;5.83;;;11.70;64.90;;;;;;5029017;28;20578;-90
2023/04/20 00:21:33;;;;;;;8.83;6.80;;;11.60;64.80;;;;;;5031309;28;20456;-85
2023/04/20 00:23:59;;;;;;;8.30;6.50;;;11.70;65.70;;;;;;5030805;28;20526;-90
2023/04/20 00:26:24;;;;;;;6.73;6.03;;;11.70;66.50;;;;;;5031908;28;20433;-90
2023/04/20 00:28:50;;;;;;;6.87;6.17;;;11.70;66.00;;;;;;5012715;28;20201;-91
2023/04/20 00:31:17;;;;;;;7.63;5.77;;;11.70;65.80;;;;;;5011801;28;20271;-92
2023/04/20 00:33:43;;;;;;;7.53;6.80;;;11.70;66.00;;;;;;5011148;28;20414;-91
2023/04/20 00:36:09;;;;;;;6.83;6.23;;;11.70;66.60;;;;;;5012121;28;20452;-91
2023/04/20 00:38:35;;;;;;;7.47;6.20;;;11.60;66.50;;;;;;5011535;28;20646;-86
2023/04/20 00:41:01;;;;;;;7.67;7.00;;;11.60;66.90;;;;;;5011241;28;20182;-91
2023/04/20 00:43:26;;;;;;;6.90;6.40;;;11.60;68.80;;;;;;5010807;28;20426;-90
2023/04/20 00:45:52;;;;;;;6.63;6.00;;;11.70;68.00;;;;;;5011493;28;20406;-91
2023/04/20 00:48:19;;;;;;;7.37;6.70;;;11.70;68.20;;;;;;5019841;28;20228;-91
2023/04/20 00:50:45;;;;;;;9.30;8.37;;;11.70;69.90;;;;;;5016909;28;20750;-92
2023/04/20 00:53:12;;;;;;;7.27;6.67;;;11.70;69.60;;;;;;5035115;28;20407;-92
2023/04/20 00:55:38;;;;;;;7.97;7.10;;;11.70;69.40;;;;;;5016685;28;20418;-90
2023/04/20 00:58:04;;;;;;;10.17;7.17;;;11.60;69.60;;;;;;5035272;28;20461;-91
2023/04/20 01:00:31;;;;;;;7.80;7.10;;;11.40;69.90;;;;;;5034979;28;20412;-91
2023/04/20 01:02:56;;;;;;;7.77;7.03;;;11.40;70.50;;;;;;5034230;28;20451;-91
2023/04/20 01:05:22;;;;;;;8.43;7.00;;;11.40;70.70;;;;;;5047751;28;20432;-91
2023/04/20 01:07:48;;;;;;;7.83;7.23;;;11.40;70.60;;;;;;5054258;28;20639;-91
2023/04/20 01:10:14;;;;;;;8.77;6.83;;;11.40;71.80;;;;;;5054971;28;20170;-91
2023/04/20 01:12:41;;;;;;;7.37;6.67;;;11.50;72.20;;;;;;5050481;28;20573;-92
2023/04/20 01:15:08;;;;;;;9.50;7.57;;;11.50;70.50;;;;;;5036992;28;20801;-92
2023/04/20 01:17:36;;;;;;;9.47;7.80;;;11.50;70.40;;;;;;5036694;28;20420;-87
2023/04/20 01:20:03;;;;;;;8.27;6.97;;;11.50;70.90;;;;;;5054721;28;20899;-92
2023/04/20 01:22:29;;;;;;;7.50;6.90;;;11.50;69.90;;;;;;5054585;28;20458;-92
2023/04/20 01:24:55;;;;;;;7.30;6.77;;;11.50;69.30;;;;;;5036076;28;21046;-91
2023/04/20 01:38:07;;;;;;;5.93;5.43;;;11.40;66.60;;;;;;5328066;23;20504;-76
2023/04/20 01:40:34;;;;;;;6.47;5.87;;;11.30;67.50;;;;;;4997648;28;20424;-75
2023/04/20 01:42:59;;;;;;;5.83;5.30;;;11.20;67.40;;;;;;5013909;28;20531;-75
2023/04/20 01:45:25;;;;;;;6.87;6.00;;;11.20;67.70;;;;;;4997061;28;20809;-75
2023/04/20 01:47:51;;;;;;;5.70;5.00;;;11.10;67.00;;;;;;5012548;28;20175;-75
2023/04/20 01:50:17;;;;;;;5.97;5.40;;;11.10;65.60;;;;;;4995649;28;20238;-75
2023/04/20 01:52:42;;;;;;;5.70;4.80;;;11.10;63.20;;;;;;5012751;28;20552;-81
2023/04/20 01:55:10;;;;;;;5.30;4.90;;;11.00;62.80;;;;;;5014225;28;20221;-75
2023/04/20 01:57:36;;;;;;;7.33;4.80;;;11.00;62.20;;;;;;5014280;28;20202;-75
2023/04/20 02:00:03;;;;;;;5.13;4.73;;;11.00;61.40;;;;;;5013105;28;20431;-75
2023/04/20 02:02:28;;;;;;;7.30;5.50;;;10.90;61.10;;;;;;5013154;28;20248;-75
2023/04/20 02:04:54;;;;;;;5.60;5.20;;;11.00;62.20;;;;;;5013208;28;20419;-75
2023/04/20 02:07:20;;;;;;;4.80;4.40;;;11.00;62.20;;;;;;5013652;28;20182;-76
2023/04/20 02:09:46;;;;;;;5.30;4.80;;;11.00;62.30;;;;;;4995556;28;20182;-75
2023/04/20 02:12:11;;;;;;;5.10;4.70;;;11.00;61.30;;;;;;5014137;28;20413;-75
2023/04/20 02:14:37;;;;;;;5.27;4.87;;;11.00;60.90;;;;;;5013811;28;20181;-75
2023/04/20 02:17:03;;;;;;;10.07;5.83;;;11.00;62.10;;;;;;5012208;28;20821;-75
2023/04/20 02:19:29;;;;;;;5.87;4.93;;;11.00;63.60;;;;;;5013760;28;20171;-75
2023/04/20 02:21:55;;;;;;;5.33;4.83;;;11.00;63.60;;;;;;5012864;28;20260;-75
2023/04/20 02:24:20;;;;;;;6.20;5.60;;;11.00;64.60;;;;;;5013680;28;20408;-75
2023/04/20 02:26:46;;;;;;;5.17;4.77;;;10.90;64.10;;;;;;5012199;28;20253;-75
2023/04/20 02:29:12;;;;;;;5.70;5.17;;;10.90;63.50;;;;;;5013382;28;20191;-75
2023/04/20 02:31:40;;;;;;;5.70;5.13;;;10.80;64.80;;;;;;5013520;28;20218;-75
2023/04/20 02:34:08;;;;;;;5.50;5.10;;;10.80;65.00;;;;;;5012890;28;20684;-75
2023/04/20 02:36:34;;;;;;;6.20;5.00;;;10.80;65.90;;;;;;5013441;28;20757;-75
2023/04/20 02:39:00;;;;;;;5.13;4.50;;;10.80;64.60;;;;;;5012110;28;20926;-75
2023/04/20 02:41:25;;;;;;;5.63;5.03;;;10.80;64.60;;;;;;4995838;28;20500;-75
2023/04/20 02:43:51;;;;;;;6.20;5.70;;;10.70;65.00;;;;;;5011757;28;20188;-75
2023/04/20 02:46:17;;;;;;;8.20;5.30;;;10.70;66.30;;;;;;5013637;28;20606;-75
2023/04/20 02:48:43;;;;;;;7.97;4.73;;;10.70;66.10;;;;;;4994598;28;20191;-82
2023/04/20 02:51:09;;;;;;;5.03;4.63;;;10.60;67.00;;;;;;5012723;28;20422;-75
2023/04/20 02:53:34;;;;;;;6.77;5.67;;;10.60;68.70;;;;;;5012279;28;20229;-75
2023/04/20 02:56:00;;;;;;;7.77;5.10;;;10.60;69.20;;;;;;5012365;28;20685;-75
2023/04/20 02:58:26;;;;;;;5.53;4.73;;;10.70;68.40;;;;;;5012406;28;20186;-75
2023/04/20 03:00:57;;;;;;;5.03;4.50;;;10.60;68.90;;;;;;5012533;28;20184;-75
2023/04/20 03:03:23;;;;;;;6.13;4.83;;;10.70;69.10;;;;;;5012915;28;20709;-75
2023/04/20 03:05:49;;;;;;;6.70;5.07;;;10.70;69.30;;;;;;5012054;28;20502;-76
2023/04/20 03:08:14;;;;;;;5.80;5.20;;;10.70;68.90;;;;;;5012241;28;20198;-75
2023/04/20 03:10:40;;;;;;;8.80;4.80;;;10.70;69.50;;;;;;5012180;28;20180;-75
2023/04/20 03:13:06;;;;;;;7.97;5.80;;;10.80;70.10;;;;;;5011802;28;20761;-74
2023/04/20 03:15:31;;;;;;;6.17;5.43;;;10.80;72.30;;;;;;5012881;28;20261;-75
2023/04/20 03:17:57;;;;;;;16.37;5.47;;;10.80;70.60;;;;;;5011940;28;20265;-75
2023/04/20 03:20:23;;;;;;;6.27;5.17;;;10.80;71.10;;;;;;5012730;28;20202;-75
2023/04/20 03:22:49;;;;;;;6.63;6.07;;;10.80;72.20;;;;;;5010812;28;20194;-76
2023/04/20 03:25:15;;;;;;;6.57;5.97;;;10.80;71.70;;;;;;5012663;28;20436;-75
2023/04/20 03:27:41;;;;;;;6.33;5.67;;;10.80;72.00;;;;;;4995167;28;20417;-75
2023/04/20 03:30:08;;;;;;;6.43;5.93;;;10.80;72.70;;;;;;5011490;28;20485;-75
2023/04/20 03:32:34;;;;;;;6.10;5.50;;;10.80;75.20;;;;;;5012736;28;20180;-75
2023/04/20 03:35:00;;;;;;;6.63;5.80;;;10.90;74.80;;;;;;5011491;28;20408;-76
2023/04/20 03:37:25;;;;;;;6.57;5.97;;;10.80;75.80;;;;;;5012153;28;20576;-75
2023/04/20 03:39:51;;;;;;;7.20;6.50;;;10.80;76.40;;;;;;5011787;28;20169;-75
2023/04/20 03:42:18;;;;;;;7.03;6.40;;;10.80;77.80;;;;;;5011225;28;20558;-75
2023/04/20 03:44:44;;;;;;;7.73;7.03;;;10.80;78.90;;;;;;5012363;28;20581;-75
2023/04/20 03:47:09;;;;;;;6.60;6.00;;;10.80;79.00;;;;;;5010824;28;20429;-78
2023/04/20 03:49:35;;;;;;;8.90;7.00;;;10.80;80.50;;;;;;5012068;28;20192;-75
2023/04/20 03:52:01;;;;;;;7.80;6.57;;;10.80;83.10;;;;;;5011576;28;20187;-75
2023/04/20 03:54:26;;;;;;;7.73;6.23;;;10.80;82.90;;;;;;5012738;28;20177;-75
2023/04/20 03:56:52;;;;;;;6.70;6.20;;;10.80;84.60;;;;;;5011516;28;20182;-75
2023/04/20 03:59:18;;;;;;;7.90;7.13;;;10.80;84.40;;;;;;5012058;28;20604;-75
2023/04/20 04:01:44;;;;;;;7.70;7.00;;;10.80;85.40;;;;;;5012315;28;20204;-75
2023/04/20 04:04:09;;;;;;;8.40;7.60;;;10.90;87.20;;;;;;5011764;28;20769;-75
2023/04/20 04:06:35;;;;;;;8.37;7.67;;;10.70;90.60;;;;;;5012230;28;20174;-75
2023/04/20 04:09:01;;;;;;;9.00;8.10;;;10.70;90.40;;;;;;4993388;28;20190;-76
2023/04/20 04:11:28;;;;;;;10.80;7.33;;;10.70;91.10;;;;;;5011331;28;20222;-75
2023/04/20 04:13:56;;;;;;;9.90;7.97;;;10.70;91.70;;;;;;5010017;28;20194;-75
2023/04/20 04:16:22;;;;;;;8.53;7.57;;;10.70;91.90;;;;;;5011981;28;20466;-75
2023/04/20 04:18:47;;;;;;;7.80;7.10;;;10.70;93.10;;;;;;5011912;28;20879;-84
2023/04/20 04:21:13;;;;;;;7.83;7.03;;;10.70;92.40;;;;;;5010543;28;20180;-75
2023/04/20 04:23:41;;;;;;;8.10;7.40;;;10.60;93.00;;;;;;5013108;28;20183;-77
2023/04/20 04:26:07;;;;;;;8.40;6.90;;;10.50;94.20;;;;;;5011578;28;20177;-76
2023/04/20 04:28:33;;;;;;;8.47;7.60;;;10.40;94.70;;;;;;5015210;28;20426;-76
2023/04/20 04:31:04;;;;;;;9.00;8.10;;;10.30;96.20;;;;;;5012507;28;20433;-75
2023/04/20 04:33:32;;;;;;;11.53;9.07;;;10.30;96.70;;;;;;5013336;28;20574;-76
2023/04/20 04:35:59;;;;;;;9.23;7.80;;;10.40;97.60;;;;;;5013908;28;20441;-75
2023/04/20 04:38:25;;;;;;;8.10;7.30;;;10.40;97.20;;;;;;5015801;28;20519;-75
2023/04/20 04:40:51;;;;;;;9.07;8.10;;;10.40;97.70;;;;;;4996987;28;20483;-84
2023/04/20 04:43:18;;;;;;;8.70;7.97;;;10.40;98.60;;;;;;5014055;28;20489;-76
2023/04/20 04:45:44;;;;;;;9.80;8.80;;;10.50;98.30;;;;;;5013852;28;20454;-76
2023/04/20 04:48:11;;;;;;;9.73;8.73;;;10.30;98.30;;;;;;5014930;28;20415;-76
2023/04/20 04:50:37;;;;;;;10.20;9.20;;;10.30;98.40;;;;;;5015970;28;20449;-75
2023/04/20 04:53:03;;;;;;;9.13;8.33;;;10.30;98.90;;;;;;4992503;28;20852;-76
2023/04/20 04:55:29;;;;;;;8.53;7.63;;;10.30;97.80;;;;;;5015495;28;20494;-75
2023/04/20 04:57:56;;;;;;;10.07;9.07;;;10.30;98.50;;;;;;5014627;28;20240;-76
2023/04/20 05:00:22;;;;;;;9.40;8.60;;;10.30;98.60;;;;;;4995719;28;20168;-75
2023/04/20 05:02:48;;;;;;;9.67;8.87;;;10.40;99.10;;;;;;4995578;28;20473;-76
2023/04/20 05:05:14;;;;;;;10.53;9.13;;;10.40;98.60;;;;;;5013461;28;21273;-76
2023/04/20 05:07:40;;;;;;;9.70;8.80;;;10.40;98.20;;;;;;5014934;28;20193;-76
2023/04/20 05:10:06;;;;;;;9.60;8.10;;;10.40;98.20;;;;;;5014048;28;20408;-75
2023/04/20 05:12:32;;;;;;;10.07;8.10;;;10.50;98.50;;;;;;5015195;28;20658;-75
2023/04/20 05:14:58;;;;;;;13.03;10.77;;;10.50;99.90;;;;;;4996931;28;20510;-75
2023/04/20 05:17:24;;;;;;;9.77;8.77;;;10.40;99.70;;;;;;5015007;28;20182;-75
2023/04/20 05:19:50;;;;;;;11.10;10.00;;;10.40;99.90;;;;;;5014894;28;20512;-75
2023/04/20 05:22:16;;;;;;;10.00;9.00;;;10.40;99.90;;;;;;5014147;28;20456;-76
2023/04/20 05:24:41;;;;;;;8.80;8.00;;;10.40;99.90;;;;;;4997563;28;20422;-75
2023/04/20 05:27:08;;;;;;;9.67;7.97;;;10.30;99.90;;;;;;5014412;28;20182;-76
2023/04/20 05:29:34;;;;;;;10.47;9.47;;;10.20;99.90;;;;;;5013930;28;20179;-76
2023/04/20 05:32:00;;;;;;;9.47;8.50;;;10.20;99.90;;;;;;5012248;28;20868;-77
2023/04/20 05:34:25;;;;;;;9.00;8.23;;;10.10;99.90;;;;;;5013595;28;20428;-76
2023/04/20 05:36:53;;;;;;;8.60;7.90;;;10.00;99.90;;;;;;5014997;28;20608;-78
2023/04/20 05:39:22;;;;;;;8.20;7.40;;;10.00;99.90;;;;;;5013697;28;20209;-78
2023/04/20 05:41:48;;;;;;;9.00;8.10;;;9.90;99.90;;;;;;5014775;28;20456;-75
2023/04/20 05:44:14;;;;;;;9.23;8.43;;;9.80;99.90;;;;;;5013007;28;20480;-78
2023/04/20 05:46:39;;;;;;;8.80;8.00;;;9.90;99.90;;;;;;5011244;28;20234;-77
2023/04/20 05:49:05;;;;;;;10.03;9.03;;;9.90;99.90;;;;;;4996836;28;20187;-75
2023/04/20 05:51:32;;;;;;;9.70;8.67;;;9.80;99.90;;;;;;4995704;28;20596;-79
2023/04/20 05:54:02;;;;;;;9.60;8.80;;;9.90;99.90;;;;;;5009809;28;20287;-77
2023/04/20 05:56:28;;;;;;;9.43;8.17;;;9.90;99.90;;;;;;4993361;28;20813;-76
2023/04/20 05:58:55;;;;;;;9.63;8.17;;;9.80;99.90;;;;;;5013419;28;20434;-84
2023/04/20 06:01:20;;;;;;;9.57;8.57;;;10.30;99.90;;;;;;5014043;28;20206;-79
2023/04/20 06:03:47;;;;;;;9.13;8.33;;;10.90;99.90;;;;;;4996777;28;20421;-77
2023/04/20 06:06:14;;;;;;;8.53;7.63;;;11.50;99.90;;;;;;4980054;28;20551;-77
2023/04/20 06:08:40;;;;;;;9.63;8.60;;;12.00;99.90;;;;;;5014022;28;20413;-77
2023/04/20 06:11:06;;;;;;;9.83;8.80;;;12.50;99.90;;;;;;5013533;28;20435;-78
2023/04/20 06:13:32;;;;;;;8.30;7.50;;;12.80;99.90;;;;;;5009388;28;20414;-78
2023/04/20 06:15:57;;;;;;;7.20;6.50;;;13.00;99.90;;;;;;5001443;28;20184;-78
2023/04/20 06:18:23;;;;;;;7.93;7.23;;;13.30;99.90;;;;;;4961097;28;20193;-76
2023/04/20 06:20:49;;;;;;;7.47;6.97;;;13.60;99.90;;;;;;4994534;28;20256;-77
2023/04/20 06:23:15;;;;;;;7.77;7.03;;;13.80;99.90;;;;;;4993871;28;20675;-77
2023/04/20 06:25:40;;;;;;;7.13;6.60;;;13.90;98.80;;;;;;4994537;28;20208;-77
2023/04/20 06:28:06;;;;;;;7.43;6.83;;;14.00;99.90;;;;;;4995566;28;20193;-78
2023/04/20 06:30:33;;;;;;;8.03;7.33;;;14.10;99.90;;;;;;4999212;28;20179;-77
2023/04/20 06:32:59;;;;;;;8.37;7.67;;;14.10;97.60;;;;;;4976664;28;20426;-77
2023/04/20 06:35:25;;;;;;;7.27;6.57;;;14.20;98.50;;;;;;5003881;28;20414;-77
2023/04/20 06:37:51;;;;;;;10.00;8.30;;;14.30;98.80;;;;;;4976510;28;20866;-77
2023/04/20 06:40:17;;;;;;;8.17;7.47;;;14.30;99.70;;;;;;4993622;28;20431;-76
2023/04/20 06:42:44;;;;;;;8.17;7.37;;;14.40;99.50;;;;;;4994137;28;20509;-78
2023/04/20 06:45:10;;;;;;;12.07;7.67;;;14.40;99.90;;;;;;5008133;28;20891;-77
2023/04/20 06:47:36;;;;;;;8.30;7.60;;;14.30;93.70;;;;;;4992063;28;20464;-76
2023/04/20 06:50:08;;;;;;;9.37;8.37;;;14.00;92.60;;;;;;4993128;28;20828;-75
2023/04/20 06:52:37;;;;;;;9.53;8.53;;;13.50;93.20;;;;;;4993479;28;20185;-75
2023/04/20 06:55:03;;;;;;;8.00;7.30;;;13.00;94.40;;;;;;4992229;28;20447;-78
2023/04/20 06:57:29;;;;;;;13.03;11.33;;;12.70;95.40;;;;;;4992110;28;20999;-75
2023/04/20 06:59:55;;;;;;;8.33;7.53;;;12.30;97.00;;;;;;4992911;28;20415;-78
2023/04/20 07:02:20;;;;;;;8.07;7.27;;;12.00;98.30;;;;;;4993141;28;20645;-79
2023/04/20 07:04:46;;;;;;;9.20;6.90;;;11.70;99.00;;;;;;4992514;28;20619;-78
2023/04/20 07:07:12;;;;;;;9.03;7.60;;;11.30;99.90;;;;;;4991941;28;20415;-77
2023/04/20 07:09:37;;;;;;;14.83;8.77;;;11.00;99.90;;;;;;4993642;28;20180;-77
2023/04/20 07:12:03;;;;;;;8.97;8.07;;;10.80;99.90;;;;;;4993156;28;20211;-77
2023/04/20 07:14:29;;;;;;;8.07;7.27;;;10.70;99.90;;;;;;4992550;28;20189;-77
2023/04/20 07:16:55;;;;;;;9.70;7.77;;;10.60;99.90;;;;;;4993369;28;20184;-78
2023/04/20 07:19:20;;;;;;;12.00;8.57;;;10.50;99.90;;;;;;4991787;28;20188;-77
2023/04/20 07:21:47;;;;;;;7.83;7.07;;;10.50;99.90;;;;;;4972830;28;20206;-77
2023/04/20 07:24:12;;;;;;;7.73;7.03;;;10.40;99.90;;;;;;4992545;28;20426;-77
2023/04/20 07:26:38;;;;;;;9.33;8.43;;;10.30;99.90;;;;;;4993460;28;20179;-77
2023/04/20 07:29:04;;;;;;;10.53;8.13;;;10.30;99.90;;;;;;4989221;28;20201;-76
2023/04/20 07:31:29;;;;;;;9.37;7.73;;;10.30;99.90;;;;;;4988286;28;20250;-78
2023/04/20 07:33:55;;;;;;;12.40;8.63;;;10.30;99.90;;;;;;4987500;28;20182;-77
2023/04/20 07:36:21;;;;;;;10.20;7.73;;;10.30;99.90;;;;;;4985099;28;20183;-79
2023/04/20 07:38:48;;;;;;;10.47;9.50;;;10.40;99.90;;;;;;5010771;28;20590;-77
2023/04/20 07:41:14;;;;;;;9.60;8.63;;;10.30;99.90;;;;;;5010971;28;20513;-77
2023/04/20 07:43:40;;;;;;;8.77;7.87;;;10.20;99.90;;;;;;5012771;28;20777;-77
2023/04/20 07:46:06;;;;;;;8.27;7.43;;;10.10;99.90;;;;;;5011425;28;20410;-77
2023/04/20 07:48:33;;;;;;;9.73;8.73;;;9.90;99.90;;;;;;4994127;28;20926;-78
2023/04/20 07:50:59;;;;;;;9.23;8.30;;;9.90;99.90;;;;;;5012562;28;20426;-77
2023/04/20 07:53:28;;;;;;;10.27;8.70;;;9.90;99.90;;;;;;5011735;28;20501;-77
2023/04/20 07:55:54;;;;;;;13.03;9.13;;;9.90;99.90;;;;;;5012827;28;20410;-77
2023/04/20 07:58:20;;;;;;;9.60;7.50;;;9.90;99.90;;;;;;5013802;28;21083;-77
2023/04/20 08:00:46;;;;;;;8.87;8.07;;;10.00;99.90;;;;;;4999514;28;20421;-77
2023/04/20 08:03:13;;;;;;;12.70;11.40;;;10.00;99.90;;;;;;5016147;28;20454;-77
2023/04/20 08:05:42;;;;;;;10.03;9.00;;;10.00;99.90;;;;;;5016822;28;20415;-77
2023/04/20 08:08:07;;;;;;;11.13;10.07;;;10.10;99.90;;;;;;4997268;28;20474;-77
2023/04/20 08:10:33;;;;;;;10.73;9.37;;;10.00;99.90;;;;;;5015166;28;20477;-77
2023/04/20 08:12:59;;;;;;;9.50;8.60;;;10.00;99.90;;;;;;5016065;28;20175;-76
2023/04/20 08:15:25;;;;;;;10.50;7.80;;;9.90;99.90;;;;;;5014117;28;20180;-77
2023/04/20 08:17:51;;;;;;;10.77;7.40;;;9.70;99.90;;;;;;5015865;28;20226;-77
2023/04/20 08:20:17;;;;;;;9.40;8.20;;;9.60;99.90;;;;;;5011152;28;20169;-76
2023/04/20 08:22:43;;;;;;;6.97;6.23;;;9.30;99.90;;;;;;4998371;28;20533;-76
2023/04/20 08:25:10;;;;;;;6.50;5.90;;;9.00;99.90;;;;;;5015056;28;20977;-77
2023/04/20 08:27:41;;;;;;;7.70;6.90;;;9.20;99.90;;;;;;5015918;28;20210;-76
2023/04/20 08:30:07;;;;;;;8.47;7.63;;;9.20;99.90;;;;;;4997979;28;20421;-77
2023/04/20 08:32:33;;;;;;;9.60;7.90;;;9.30;99.90;;;;;;5016116;28;20437;-77
2023/04/20 08:35:03;;;;;;;8.80;7.90;;;9.50;99.90;;;;;;4998396;28;20418;-76
2023/04/20 08:37:28;;;;;;;9.90;8.90;;;9.60;99.90;;;;;;4982368;28;20725;-76
2023/04/20 08:39:54;;;;;;;9.13;8.10;;;9.70;99.90;;;;;;4998545;28;20415;-76
2023/04/20 08:42:20;;;;;;;9.00;8.20;;;9.80;99.90;;;;;;5015518;28;20556;-77
2023/04/20 08:44:46;;;;;;;10.20;8.30;;;10.00;99.90;;;;;;5015962;28;20611;-77
2023/04/20 08:47:13;;;;;;;9.67;8.60;;;10.10;99.90;;;;;;4997886;28;20543;-77
2023/04/20 08:49:39;;;;;;;9.40;8.20;;;10.40;99.90;;;;;;4998468;28;20414;-77
2023/04/20 08:52:06;;;;;;;8.77;7.87;;;10.40;99.90;;;;;;5015292;28;20405;-77
2023/04/20 08:54:32;;;;;;;9.40;8.47;;;10.40;99.90;;;;;;4998289;28;20770;-77
2023/04/20 08:56:58;;;;;;;14.50;10.20;;;10.50;99.90;;;;;;4998217;28;20402;-77
2023/04/20 08:59:24;;;;;;;10.03;9.03;;;10.60;99.90;;;;;;5014839;28;20858;-77
2023/04/20 09:01:52;;;;;;;9.00;8.13;;;10.80;99.90;;;;;;5015623;28;20540;-77
2023/04/20 09:04:25;;;;;;;9.47;8.47;;;10.70;99.90;;;;;;5015039;28;20491;-77
2023/04/20 09:06:53;;;;;;;9.23;8.40;;;10.60;99.90;;;;;;5015588;28;20420;-77
2023/04/20 09:09:20;;;;;;;8.30;7.53;;;10.70;99.90;;;;;;5014340;28;20425;-77
2023/04/20 09:11:47;;;;;;;7.70;7.00;;;10.80;99.90;;;;;;4997817;28;20508;-77
2023/04/20 09:14:17;;;;;;;7.47;6.67;;;10.60;99.90;;;;;;4997366;28;20510;-77
2023/04/20 09:16:51;;;;;;;7.47;6.77;;;10.70;99.90;;;;;;5015414;28;20389;-77
2023/04/20 09:19:24;;;;;;;6.27;5.77;;;10.60;99.90;;;;;;5014639;28;20446;-77
2023/04/20 09:21:51;;;;;;;6.90;6.30;;;10.70;99.90;;;;;;4997620;28;20848;-76
2023/04/20 09:24:19;;;;;;;6.63;6.00;;;10.70;99.90;;;;;;5014620;28;20418;-76
2023/04/20 09:26:45;;;;;;;6.80;6.20;;;10.20;99.90;;;;;;5015190;28;20416;-76
2023/04/20 09:29:22;;;;;;;6.30;5.80;;;10.30;99.90;;;;;;4997011;28;20408;-77
2023/04/20 09:31:49;;;;;;;6.93;6.43;;;10.30;99.90;;;;;;5015149;28;20175;-77
2023/04/20 09:34:15;;;;;;;7.10;6.50;;;10.50;99.90;;;;;;5014139;28;20427;-77
2023/04/20 09:36:43;;;;;;;8.20;7.40;;;10.60;99.90;;;;;;5014853;28;20491;-77
2023/04/20 09:39:11;;;;;;;8.50;7.70;;;10.80;99.90;;;;;;5014084;28;20458;-78
2023/04/20 09:41:38;;;;;;;6.70;6.10;;;10.90;99.90;;;;;;5014539;28;20464;-77
2023/04/20 09:44:05;;;;;;;7.70;6.97;;;10.90;99.90;;;;;;4997024;28;20909;-77
2023/04/20 09:46:33;;;;;;;7.50;6.80;;;10.90;99.90;;;;;;5014212;28;20416;-77
2023/04/20 09:49:01;;;;;;;7.10;6.40;;;10.90;99.90;;;;;;5014491;28;20417;-77
2023/04/20 09:51:28;;;;;;;6.73;6.13;;;11.00;99.90;;;;;;5014136;28;20769;-77
2023/04/20 09:53:58;;;;;;;7.30;6.70;;;11.20;99.90;;;;;;5014665;28;20825;-77
2023/04/20 09:56:26;;;;;;;6.23;5.67;;;11.40;99.90;;;;;;5014057;28;20441;-77
2023/04/20 09:58:53;;;;;;;6.57;5.97;;;11.50;99.90;;;;;;5014538;28;20422;-77
2023/04/20 10:01:21;;;;;;;7.67;5.93;;;11.70;99.90;;;;;;5013833;28;20403;-77
2023/04/20 10:03:47;;;;;;;5.53;5.13;;;11.80;99.90;;;;;;5014501;28;20421;-77
2023/04/20 10:06:20;;;;;;;5.60;5.10;;;11.80;99.90;;;;;;4996215;28;20428;-77
2023/04/20 10:08:46;;;;;;;6.33;5.60;;;11.70;99.90;;;;;;5014452;28;20417;-77
2023/04/20 10:11:29;;;;;;;5.67;5.27;;;11.60;99.90;;;;;;5013720;28;20429;-77
2023/04/20 10:13:56;;;;;;;6.83;6.17;;;11.70;99.90;;;;;;5014423;28;20489;-77
2023/04/20 10:16:22;;;;;;;5.73;5.33;;;11.60;99.90;;;;;;5013671;28;20411;-77
2023/04/20 10:19:01;;;;;;;5.50;5.00;;;11.50;98.70;;;;;;5014321;28;20898;-77
2023/04/20 10:21:31;;;;;;;5.43;4.93;;;11.50;99.50;;;;;;4995116;28;20170;-77
2023/04/20 10:24:02;;;;;;;5.10;4.70;;;11.50;98.60;;;;;;5014106;28;20472;-77
2023/04/20 10:26:39;;;;;;;4.80;4.50;;;11.50;99.10;;;;;;5013599;28;20446;-77
2023/04/20 10:29:08;;;;;;;4.40;4.10;;;11.60;99.90;;;;;;5013962;28;20414;-77
2023/04/20 10:31:36;;;;;;;5.23;4.73;;;11.60;98.90;;;;;;5013632;28;20416;-77
2023/04/20 10:34:02;;;;;;;6.30;5.13;;;11.60;99.20;;;;;;5013922;28;20407;-77
2023/04/20 10:36:30;;;;;;;5.17;4.80;;;11.80;99.80;;;;;;5013251;28;20736;-77
2023/04/20 10:38:56;;;;;;;4.37;4.07;;;11.90;99.90;;;;;;4996074;28;20252;-77
2023/04/20 10:41:22;;;;;;;5.20;4.80;;;12.00;98.10;;;;;;5013108;28;20421;-77
2023/04/20 10:43:49;;;;;;;5.20;4.80;;;12.20;98.40;;;;;;5013743;28;20417;-77
2023/04/20 10:46:22;;;;;;;4.53;4.23;;;12.20;97.90;;;;;;5013383;28;20405;-77
2023/04/20 10:48:56;;;;;;;4.60;4.30;;;12.20;95.90;;;;;;5013425;28;20411;-77
2023/04/20 10:51:22;;;;;;;5.20;4.80;;;12.20;96.00;;;;;;4995462;28;20407;-77
2023/04/20 10:54:05;;;;;;;4.93;4.63;;;12.30;95.80;;;;;;5013534;28;20461;-77
2023/04/20 10:56:51;;;;;;;5.50;5.20;;;12.30;95.40;;;;;;5012883;28;20703;-76
2023/04/20 10:59:22;;;;;;;4.73;4.43;;;11.90;93.70;;;;;;5012791;28;20398;-77
2023/04/20 11:01:49;;;;;;;5.10;4.60;;;11.70;95.70;;;;;;4995628;28;20550;-77
2023/04/20 11:04:15;;;;;;;4.23;3.90;;;11.80;96.60;;;;;;5013214;28;20413;-77
2023/04/20 11:06:43;;;;;;;3.60;3.40;;;11.80;96.10;;;;;;5013254;28;20773;-76
2023/04/20 11:09:39;;;;;;;5.30;5.00;;;11.90;97.10;;;;;;5013529;28;20877;-77
2023/04/20 11:12:13;;;;;;;5.07;3.93;;;12.10;96.00;;;;;;4994490;28;20426;-77
2023/04/20 11:14:51;;;;;;;4.57;4.27;;;12.20;96.50;;;;;;5013230;28;20754;-77
2023/04/20 11:17:17;;;;;;;4.73;4.33;;;12.50;96.40;;;;;;4995139;28;20490;-77
2023/04/20 11:19:43;;;;;;;5.07;4.67;;;12.60;94.40;;;;;;5013373;28;20523;-77
2023/04/20 11:22:21;;;;;;;4.13;3.83;;;12.60;94.00;;;;;;5012875;28;20603;-77
2023/04/20 11:24:47;;;;;;;4.67;4.37;;;12.70;93.60;;;;;;5013268;28;20168;-76
2023/04/20 11:27:21;;;;;;;3.97;3.77;;;12.70;93.70;;;;;;4979107;28;20470;-83
2023/04/20 11:29:56;;;;;;;4.80;4.30;;;12.70;93.30;;;;;;5013091;28;20423;-77
2023/04/20 11:32:22;;;;;;;4.50;4.10;;;12.70;92.40;;;;;;4994215;28;20395;-77
2023/04/20 11:35:06;;;;;;;5.00;4.60;;;12.90;93.30;;;;;;5012924;28;20406;-77
2023/04/20 11:37:33;;;;;;;5.37;4.97;;;13.10;92.80;;;;;;4994490;28;20874;-77
2023/04/20 11:40:06;;;;;;;5.47;5.00;;;13.20;91.90;;;;;;5012855;28;20466;-77
2023/04/20 11:42:31;;;;;;;4.90;4.53;;;13.30;91.70;;;;;;5011902;28;21011;-76
2023/04/20 11:44:58;;;;;;;5.20;4.90;;;13.20;91.50;;;;;;5012416;28;20479;-77
2023/04/20 11:47:25;;;;;;;5.97;5.47;;;13.20;91.40;;;;;;5012270;28;20419;-77
2023/04/20 11:49:50;;;;;;;6.00;5.50;;;13.10;91.10;;;;;;5012788;28;20433;-77
2023/04/20 11:52:16;;;;;;;6.40;5.83;;;12.90;90.00;;;;;;4994765;28;20412;-77
2023/04/20 11:54:42;;;;;;;7.57;6.90;;;13.10;92.00;;;;;;5012787;28;20177;-77
2023/04/20 11:57:08;;;;;;;9.50;7.50;;;13.10;91.30;;;;;;5012709;28;20178;-77
2023/04/20 11:59:33;;;;;;;6.27;5.77;;;13.30;91.70;;;;;;5009737;28;20194;-77
2023/04/20 12:02:02;;;;;;;6.40;5.90;;;13.40;90.00;;;;;;5011642;28;20217;-77
2023/04/20 12:04:30;;;;;;;6.13;5.53;;;13.60;90.90;;;;;;5011559;28;20696;-77
2023/04/20 12:06:58;;;;;;;6.53;6.03;;;13.90;90.50;;;;;;5008538;28;20432;-79
2023/04/20 12:09:25;;;;;;;7.27;6.67;;;14.20;89.80;;;;;;5010385;28;20433;-78
2023/04/20 12:11:50;;;;;;;6.30;5.80;;;14.40;87.80;;;;;;5012205;28;20414;-78
2023/04/20 12:14:16;;;;;;;7.00;6.43;;;14.50;85.40;;;;;;5012028;28;20502;-83
2023/04/20 12:16:42;;;;;;;6.83;6.23;;;14.20;83.70;;;;;;5011637;28;20175;-77
2023/04/20 12:19:08;;;;;;;7.77;7.07;;;14.10;82.00;;;;;;5010611;28;20252;-77
2023/04/20 12:21:34;;;;;;;7.70;7.00;;;14.30;81.00;;;;;;5011185;28;20419;-77
2023/04/20 12:24:00;;;;;;;7.87;6.73;;;14.20;80.60;;;;;;5010727;28;20198;-77
2023/04/20 12:26:25;;;;;;;7.07;6.43;;;14.30;79.30;;;;;;4986051;28;20420;-77
2023/04/20 12:28:52;;;;;;;6.80;6.20;;;14.40;79.10;;;;;;4992587;28;20414;-78
2023/04/20 12:31:18;;;;;;;6.90;6.20;;;14.40;77.80;;;;;;4991090;28;20182;-77
2023/04/20 12:33:44;;;;;;;7.00;6.50;;;14.20;76.40;;;;;;4992573;28;20407;-77
2023/04/20 12:36:10;;;;;;;7.20;6.13;;;14.10;74.70;;;;;;4992086;28;20426;-77
2023/04/20 12:38:35;;;;;;;7.43;6.83;;;14.10;75.30;;;;;;4999242;28;20506;-78
2023/04/20 12:41:03;;;;;;;7.20;6.60;;;14.00;75.90;;;;;;5011520;28;20785;-77
2023/04/20 12:43:30;;;;;;;7.03;6.53;;;14.00;78.80;;;;;;4993232;28;20493;-78
2023/04/20 12:45:56;;;;;;;7.97;7.27;;;14.10;78.00;;;;;;4996823;28;20425;-77
2023/04/20 12:48:21;;;;;;;9.50;8.60;;;14.10;78.80;;;;;;4988850;28;20421;-80
2023/04/20 12:50:47;;;;;;;7.73;7.13;;;14.20;79.50;;;;;;4995962;28;20183;-77
2023/04/20 12:53:13;;;;;;;9.17;8.30;;;14.30;77.40;;;;;;4995851;28;20172;-77
2023/04/20 12:55:39;;;;;;;8.70;8.00;;;14.10;77.10;;;;;;4995012;28;20167;-77